sensor_id;sensor_type;location;lat;lon;timestamp;temperature;humidity
44817;DHT22;30529;53.570;9.964;2022-07-29T00:00:59;14.60;99.90
44817;DHT22;30529;53.570;9.964;2022-07-29T00:03:25;14.50;99.90
44817;DHT22;30529;53.570;9.964;2022-07-29T00:05:51;14.50;99.90
44817;DHT22;30529;53.570;9.964;2022-07-29T00:08:18;14.50;99.90
44817;DHT22;30529;53.570;9.964;2022-07-29T00:10:45;14.50;99.90
44817;DHT22;30529;53.570;9.964;2022-07-29T00:13:11;14.50;99.90
44817;DHT22;30529;53.570;9.964;2022-07-29T00:15:37;14.40;99.90
44817;DHT22;30529;53.570;9.964;2022-07-29T00:18:03;14.40;99.90
44817;DHT22;30529;53.570;9.964;2022-07-29T00:20:29;14.40;99.90
44817;DHT22;30529;53.570;9.964;2022-07-29T00:22:57;14.40;99.90
44817;DHT22;30529;53.570;9.964;2022-07-29T00:25:23;14.40;99.90
44817;DHT22;30529;53.570;9.964;2022-07-29T00:27:49;14.40;99.90
44817;DHT22;30529;53.570;9.964;2022-07-29T00:30:15;14.40;99.90
44817;DHT22;30529;53.570;9.964;2022-07-29T00:32:41;14.40;99.90
44817;DHT22;30529;53.570;9.964;2022-07-29T00:35:08;14.40;99.90
44817;DHT22;30529;53.570;9.964;2022-07-29T00:37:52;14.30;99.90
44817;DHT22;30529;53.570;9.964;2022-07-29T00:40:19;14.30;99.90
44817;DHT22;30529;53.570;9.964;2022-07-29T00:42:47;14.30;99.90
44817;DHT22;30529;53.570;9.964;2022-07-29T00:45:14;14.30;99.90
44817;DHT22;30529;53.570;9.964;2022-07-29T00:47:40;14.20;99.90
44817;DHT22;30529;53.570;9.964;2022-07-29T00:50:08;14.20;99.90
44817;DHT22;30529;53.570;9.964;2022-07-29T00:52:38;14.20;99.90
44817;DHT22;30529;53.570;9.964;2022-07-29T00:55:07;14.20;99.90
44817;DHT22;30529;53.570;9.964;2022-07-29T00:57:34;14.10;99.90
44817;DHT22;30529;53.570;9.964;2022-07-29T01:00:02;14.10;99.90
44817;DHT22;30529;53.570;9.964;2022-07-29T01:02:28;14.10;99.90
44817;DHT22;30529;53.570;9.964;2022-07-29T01:04:55;14.00;99.90
44817;DHT22;30529;53.570;9.964;2022-07-29T01:07:24;14.00;99.90
44817;DHT22;30529;53.570;9.964;2022-07-29T01:09:51;14.00;99.90
44817;DHT22;30529;53.570;9.964;2022-07-29T01:12:24;14.00;99.90
44817;DHT22;30529;53.570;9.964;2022-07-29T01:14:51;14.00;99.90
44817;DHT22;30529;53.570;9.964;2022-07-29T01:17:25;14.00;99.90
44817;DHT22;30529;53.570;9.964;2022-07-29T01:20:16;13.90;99.90
44817;DHT22;30529;53.570;9.964;2022-07-29T01:22:53;13.90;99.90
44817;DHT22;30529;53.570;9.964;2022-07-29T01:34:03;14.00;99.90
44817;DHT22;30529;53.570;9.964;2022-07-29T01:36:35;14.00;99.90
44817;DHT22;30529;53.570;9.964;2022-07-29T01:39:14;14.00;99.90
44817;DHT22;30529;53.570;9.964;2022-07-29T01:41:55;14.00;99.90
44817;DHT22;30529;53.570;9.964;2022-07-29T01:44:48;14.00;99.90
44817;DHT22;30529;53.570;9.964;2022-07-29T01:47:21;14.00;99.90
44817;DHT22;30529;53.570;9.964;2022-07-29T01:49:51;14.00;99.90
44817;DHT22;30529;53.570;9.964;2022-07-29T01:52:31;14.00;99.90
44817;DHT22;30529;53.570;9.964;2022-07-29T01:55:04;14.00;99.90
44817;DHT22;30529;53.570;9.964;2022-07-29T01:57:33;14.00;99.90
44817;DHT22;30529;53.570;9.964;2022-07-29T02:00:04;14.00;99.90
44817;DHT22;30529;53.570;9.964;2022-07-29T02:02:32;14.00;99.90
44817;DHT22;30529;53.570;9.964;2022-07-29T02:05:02;14.00;99.90
44817;DHT22;30529;53.570;9.964;2022-07-29T02:07:30;14.00;99.90
44817;DHT22;30529;53.570;9.964;2022-07-29T02:09:58;14.00;99.90
44817;DHT22;30529;53.570;9.964;2022-07-29T02:12:32;14.00;99.90
44817;DHT22;30529;53.570;9.964;2022-07-29T02:15:02;14.00;99.90
44817;DHT22;30529;53.570;9.964;2022-07-29T02:17:33;14.10;99.90
44817;DHT22;30529;53.570;9.964;2022-07-29T02:20:03;14.10;99.90
44817;DHT22;30529;53.570;9.964;2022-07-29T02:22:31;14.10;99.90
44817;DHT22;30529;53.570;9.964;2022-07-29T02:24:59;14.10;99.90
44817;DHT22;30529;53.570;9.964;2022-07-29T02:27:33;14.10;99.90
44817;DHT22;30529;53.570;9.964;2022-07-29T02:30:02;14.10;99.90
44817;DHT22;30529;53.570;9.964;2022-07-29T02:32:30;14.10;99.90
44817;DHT22;30529;53.570;9.964;2022-07-29T02:34:58;14.20;99.90
44817;DHT22;30529;53.570;9.964;2022-07-29T02:37:24;14.20;99.90
44817;DHT22;30529;53.570;9.964;2022-07-29T02:39:53;14.20;99.90
44817;DHT22;30529;53.570;9.964;2022-07-29T02:42:22;14.20;99.90
44817;DHT22;30529;53.570;9.964;2022-07-29T02:44:50;14.20;99.90
44817;DHT22;30529;53.570;9.964;2022-07-29T02:47:34;14.30;99.90
44817;DHT22;30529;53.570;9.964;2022-07-29T02:52:38;14.30;99.90
44817;DHT22;30529;53.570;9.964;2022-07-29T02:55:29;14.30;99.90
44817;DHT22;30529;53.570;9.964;2022-07-29T02:58:12;14.30;99.90
44817;DHT22;30529;53.570;9.964;2022-07-29T03:00:40;14.30;99.90
44817;DHT22;30529;53.570;9.964;2022-07-29T03:03:11;14.30;99.90
44817;DHT22;30529;53.570;9.964;2022-07-29T03:05:39;14.30;99.90
44817;DHT22;30529;53.570;9.964;2022-07-29T03:08:08;14.30;99.90
44817;DHT22;30529;53.570;9.964;2022-07-29T03:10:38;14.20;99.90
44817;DHT22;30529;53.570;9.964;2022-07-29T03:13:05;14.20;99.90
44817;DHT22;30529;53.570;9.964;2022-07-29T03:15:32;14.20;99.90
44817;DHT22;30529;53.570;9.964;2022-07-29T03:17:59;14.20;99.90
44817;DHT22;30529;53.570;9.964;2022-07-29T03:20:26;14.20;99.90
44817;DHT22;30529;53.570;9.964;2022-07-29T03:22:52;14.30;99.90
44817;DHT22;30529;53.570;9.964;2022-07-29T03:25:19;14.30;99.90
44817;DHT22;30529;53.570;9.964;2022-07-29T03:27:47;14.30;99.90
44817;DHT22;30529;53.570;9.964;2022-07-29T03:30:13;14.30;99.90
44817;DHT22;30529;53.570;9.964;2022-07-29T03:32:41;14.40;99.90
44817;DHT22;30529;53.570;9.964;2022-07-29T03:35:08;14.40;99.90
44817;DHT22;30529;53.570;9.964;2022-07-29T03:37:34;14.40;99.90
44817;DHT22;30529;53.570;9.964;2022-07-29T03:40:05;14.50;99.90
44817;DHT22;30529;53.570;9.964;2022-07-29T03:42:34;14.50;99.90
44817;DHT22;30529;53.570;9.964;2022-07-29T03:45:05;14.50;99.90
44817;DHT22;30529;53.570;9.964;2022-07-29T03:47:32;14.50;99.90
44817;DHT22;30529;53.570;9.964;2022-07-29T03:50:05;14.50;99.90
44817;DHT22;30529;53.570;9.964;2022-07-29T03:52:31;14.60;99.90
44817;DHT22;30529;53.570;9.964;2022-07-29T03:54:57;14.60;99.90
44817;DHT22;30529;53.570;9.964;2022-07-29T03:57:25;14.60;99.90
44817;DHT22;30529;53.570;9.964;2022-07-29T03:59:53;14.60;99.90
44817;DHT22;30529;53.570;9.964;2022-07-29T04:02:20;14.60;99.90
44817;DHT22;30529;53.570;9.964;2022-07-29T04:04:46;14.60;99.90
44817;DHT22;30529;53.570;9.964;2022-07-29T04:07:13;14.70;99.90
44817;DHT22;30529;53.570;9.964;2022-07-29T04:09:40;14.70;99.90
44817;DHT22;30529;53.570;9.964;2022-07-29T04:12:06;14.70;99.90
44817;DHT22;30529;53.570;9.964;2022-07-29T04:14:33;14.70;99.90
44817;DHT22;30529;53.570;9.964;2022-07-29T04:17:01;14.80;99.90
44817;DHT22;30529;53.570;9.964;2022-07-29T04:19:28;14.80;99.90
44817;DHT22;30529;53.570;9.964;2022-07-29T04:21:54;14.80;99.90
44817;DHT22;30529;53.570;9.964;2022-07-29T04:24:20;14.80;99.90
44817;DHT22;30529;53.570;9.964;2022-07-29T04:26:46;14.90;99.90
44817;DHT22;30529;53.570;9.964;2022-07-29T04:29:15;14.90;99.90
44817;DHT22;30529;53.570;9.964;2022-07-29T04:31:42;14.90;99.90
44817;DHT22;30529;53.570;9.964;2022-07-29T04:34:09;15.00;99.90
44817;DHT22;30529;53.570;9.964;2022-07-29T04:36:35;15.00;99.90
44817;DHT22;30529;53.570;9.964;2022-07-29T04:39:01;15.00;99.90
44817;DHT22;30529;53.570;9.964;2022-07-29T04:41:28;15.00;99.90
44817;DHT22;30529;53.570;9.964;2022-07-29T04:43:54;15.10;99.90
44817;DHT22;30529;53.570;9.964;2022-07-29T04:46:20;15.20;99.90
44817;DHT22;30529;53.570;9.964;2022-07-29T04:48:47;15.20;99.90
44817;DHT22;30529;53.570;9.964;2022-07-29T04:51:14;15.40;99.90
44817;DHT22;30529;53.570;9.964;2022-07-29T04:53:40;15.50;99.90
44817;DHT22;30529;53.570;9.964;2022-07-29T04:56:06;15.50;99.90
44817;DHT22;30529;53.570;9.964;2022-07-29T04:58:35;15.60;99.90
44817;DHT22;30529;53.570;9.964;2022-07-29T05:01:03;15.60;99.90
44817;DHT22;30529;53.570;9.964;2022-07-29T05:03:29;15.60;99.90
44817;DHT22;30529;53.570;9.964;2022-07-29T05:05:55;15.60;99.90
44817;DHT22;30529;53.570;9.964;2022-07-29T05:08:21;15.60;99.90
44817;DHT22;30529;53.570;9.964;2022-07-29T05:10:47;15.60;99.90
44817;DHT22;30529;53.570;9.964;2022-07-29T05:13:14;15.60;99.90
44817;DHT22;30529;53.570;9.964;2022-07-29T05:15:40;15.60;99.90
44817;DHT22;30529;53.570;9.964;2022-07-29T05:18:06;15.60;99.90
44817;DHT22;30529;53.570;9.964;2022-07-29T05:20:32;15.70;99.90
44817;DHT22;30529;53.570;9.964;2022-07-29T05:23:01;15.70;99.90
44817;DHT22;30529;53.570;9.964;2022-07-29T05:25:28;15.80;99.90
44817;DHT22;30529;53.570;9.964;2022-07-29T05:27:55;16.00;99.90
44817;DHT22;30529;53.570;9.964;2022-07-29T05:30:21;16.20;99.90
44817;DHT22;30529;53.570;9.964;2022-07-29T05:32:48;16.30;99.90
44817;DHT22;30529;53.570;9.964;2022-07-29T05:35:14;16.50;99.90
44817;DHT22;30529;53.570;9.964;2022-07-29T05:37:41;16.70;99.90
44817;DHT22;30529;53.570;9.964;2022-07-29T05:40:07;16.80;99.90
44817;DHT22;30529;53.570;9.964;2022-07-29T05:42:34;16.90;99.90
44817;DHT22;30529;53.570;9.964;2022-07-29T05:45:01;16.90;99.90
44817;DHT22;30529;53.570;9.964;2022-07-29T05:47:27;16.80;99.90
44817;DHT22;30529;53.570;9.964;2022-07-29T05:49:53;16.70;99.90
44817;DHT22;30529;53.570;9.964;2022-07-29T05:52:20;16.70;99.90
44817;DHT22;30529;53.570;9.964;2022-07-29T05:54:50;16.70;99.90
44817;DHT22;30529;53.570;9.964;2022-07-29T05:57:19;16.90;99.90
44817;DHT22;30529;53.570;9.964;2022-07-29T05:59:45;17.50;99.90
44817;DHT22;30529;53.570;9.964;2022-07-29T06:02:12;18.00;99.90
44817;DHT22;30529;53.570;9.964;2022-07-29T06:04:38;18.40;99.90
44817;DHT22;30529;53.570;9.964;2022-07-29T06:07:04;18.30;99.90
44817;DHT22;30529;53.570;9.964;2022-07-29T06:09:31;18.30;99.90
44817;DHT22;30529;53.570;9.964;2022-07-29T06:11:57;18.20;99.90
44817;DHT22;30529;53.570;9.964;2022-07-29T06:14:24;18.20;99.90
44817;DHT22;30529;53.570;9.964;2022-07-29T06:16:50;18.30;99.90
44817;DHT22;30529;53.570;9.964;2022-07-29T06:19:17;18.40;99.90
44817;DHT22;30529;53.570;9.964;2022-07-29T06:21:43;18.50;99.90
44817;DHT22;30529;53.570;9.964;2022-07-29T06:24:14;18.60;99.90
44817;DHT22;30529;53.570;9.964;2022-07-29T06:26:41;18.60;99.90
44817;DHT22;30529;53.570;9.964;2022-07-29T06:29:08;18.60;99.90
44817;DHT22;30529;53.570;9.964;2022-07-29T06:31:34;18.60;99.90
44817;DHT22;30529;53.570;9.964;2022-07-29T06:34:00;18.60;99.90
44817;DHT22;30529;53.570;9.964;2022-07-29T06:36:26;18.50;99.90
44817;DHT22;30529;53.570;9.964;2022-07-29T06:38:53;18.40;99.90
44817;DHT22;30529;53.570;9.964;2022-07-29T06:41:19;18.30;99.90
44817;DHT22;30529;53.570;9.964;2022-07-29T06:43:45;18.30;99.90
44817;DHT22;30529;53.570;9.964;2022-07-29T06:46:14;18.50;99.90
44817;DHT22;30529;53.570;9.964;2022-07-29T06:48:41;18.60;99.90
44817;DHT22;30529;53.570;9.964;2022-07-29T06:51:11;18.80;99.90
44817;DHT22;30529;53.570;9.964;2022-07-29T06:53:38;18.70;99.90
44817;DHT22;30529;53.570;9.964;2022-07-29T06:56:06;18.80;99.90
44817;DHT22;30529;53.570;9.964;2022-07-29T06:58:35;18.90;99.90
44817;DHT22;30529;53.570;9.964;2022-07-29T07:01:03;18.90;99.90
44817;DHT22;30529;53.570;9.964;2022-07-29T07:03:30;18.90;99.90
44817;DHT22;30529;53.570;9.964;2022-07-29T07:05:56;18.90;99.90
44817;DHT22;30529;53.570;9.964;2022-07-29T07:08:22;19.10;99.90
44817;DHT22;30529;53.570;9.964;2022-07-29T07:10:50;19.20;99.90
44817;DHT22;30529;53.570;9.964;2022-07-29T07:13:16;19.20;99.90
44817;DHT22;30529;53.570;9.964;2022-07-29T07:15:46;19.20;99.90
44817;DHT22;30529;53.570;9.964;2022-07-29T07:18:15;19.30;99.90
44817;DHT22;30529;53.570;9.964;2022-07-29T07:20:41;19.40;99.90
44817;DHT22;30529;53.570;9.964;2022-07-29T07:23:08;19.50;99.90
44817;DHT22;30529;53.570;9.964;2022-07-29T07:25:34;19.50;99.90
44817;DHT22;30529;53.570;9.964;2022-07-29T07:28:00;19.60;99.90
44817;DHT22;30529;53.570;9.964;2022-07-29T07:30:27;19.60;99.90
44817;DHT22;30529;53.570;9.964;2022-07-29T07:32:54;19.60;99.90
44817;DHT22;30529;53.570;9.964;2022-07-29T07:35:21;19.50;99.90
44817;DHT22;30529;53.570;9.964;2022-07-29T07:37:48;19.30;99.90
44817;DHT22;30529;53.570;9.964;2022-07-29T07:40:14;19.10;99.90
44817;DHT22;30529;53.570;9.964;2022-07-29T07:42:41;19.00;99.90
44817;DHT22;30529;53.570;9.964;2022-07-29T07:45:08;19.00;99.90
44817;DHT22;30529;53.570;9.964;2022-07-29T07:47:36;19.00;99.90
44817;DHT22;30529;53.570;9.964;2022-07-29T07:50:04;19.00;99.90
44817;DHT22;30529;53.570;9.964;2022-07-29T07:52:30;19.10;99.90
44817;DHT22;30529;53.570;9.964;2022-07-29T07:54:56;19.30;99.90
44817;DHT22;30529;53.570;9.964;2022-07-29T07:57:22;19.30;99.90
44817;DHT22;30529;53.570;9.964;2022-07-29T07:59:48;19.50;99.90
44817;DHT22;30529;53.570;9.964;2022-07-29T08:02:15;19.70;99.90
44817;DHT22;30529;53.570;9.964;2022-07-29T08:04:41;19.80;99.90
44817;DHT22;30529;53.570;9.964;2022-07-29T08:07:07;19.90;99.90
44817;DHT22;30529;53.570;9.964;2022-07-29T08:09:35;19.80;99.90
44817;DHT22;30529;53.570;9.964;2022-07-29T08:12:02;19.80;99.90
44817;DHT22;30529;53.570;9.964;2022-07-29T08:14:30;19.90;99.90
44817;DHT22;30529;53.570;9.964;2022-07-29T08:16:56;20.10;99.90
44817;DHT22;30529;53.570;9.964;2022-07-29T08:19:22;20.10;99.90
44817;DHT22;30529;53.570;9.964;2022-07-29T08:21:53;20.20;99.90
44817;DHT22;30529;53.570;9.964;2022-07-29T08:24:20;20.10;99.90
44817;DHT22;30529;53.570;9.964;2022-07-29T08:27:05;20.10;99.90
44817;DHT22;30529;53.570;9.964;2022-07-29T08:29:31;20.30;99.90
44817;DHT22;30529;53.570;9.964;2022-07-29T08:32:02;20.40;99.90
44817;DHT22;30529;53.570;9.964;2022-07-29T08:34:32;20.20;99.90
44817;DHT22;30529;53.570;9.964;2022-07-29T08:36:59;20.20;99.90
44817;DHT22;30529;53.570;9.964;2022-07-29T08:39:25;20.10;99.90
44817;DHT22;30529;53.570;9.964;2022-07-29T08:41:51;20.10;99.90
44817;DHT22;30529;53.570;9.964;2022-07-29T08:44:18;20.20;99.90
44817;DHT22;30529;53.570;9.964;2022-07-29T08:46:45;20.20;99.90
44817;DHT22;30529;53.570;9.964;2022-07-29T08:49:11;20.10;99.90
44817;DHT22;30529;53.570;9.964;2022-07-29T08:51:39;20.10;99.90
44817;DHT22;30529;53.570;9.964;2022-07-29T08:54:10;20.10;99.90
44817;DHT22;30529;53.570;9.964;2022-07-29T08:56:38;20.00;99.90
44817;DHT22;30529;53.570;9.964;2022-07-29T08:59:05;19.90;99.90
44817;DHT22;30529;53.570;9.964;2022-07-29T09:01:37;19.90;99.90
44817;DHT22;30529;53.570;9.964;2022-07-29T09:04:06;19.80;99.90
44817;DHT22;30529;53.570;9.964;2022-07-29T09:06:37;19.80;99.90
44817;DHT22;30529;53.570;9.964;2022-07-29T09:09:04;19.90;99.90
44817;DHT22;30529;53.570;9.964;2022-07-29T09:11:32;20.00;99.90
44817;DHT22;30529;53.570;9.964;2022-07-29T09:13:58;20.10;99.90
44817;DHT22;30529;53.570;9.964;2022-07-29T09:16:24;20.10;99.90
44817;DHT22;30529;53.570;9.964;2022-07-29T09:18:50;20.10;99.90
44817;DHT22;30529;53.570;9.964;2022-07-29T09:21:17;20.10;99.90
44817;DHT22;30529;53.570;9.964;2022-07-29T09:26:41;20.20;99.90
44817;DHT22;30529;53.570;9.964;2022-07-29T09:29:13;20.30;99.90
44817;DHT22;30529;53.570;9.964;2022-07-29T09:31:42;20.30;99.90
44817;DHT22;30529;53.570;9.964;2022-07-29T09:34:09;20.50;99.90
44817;DHT22;30529;53.570;9.964;2022-07-29T09:36:44;20.60;99.90
44817;DHT22;30529;53.570;9.964;2022-07-29T09:39:10;20.80;99.90
44817;DHT22;30529;53.570;9.964;2022-07-29T09:41:50;21.00;99.90
44817;DHT22;30529;53.570;9.964;2022-07-29T09:44:18;21.10;99.90
44817;DHT22;30529;53.570;9.964;2022-07-29T09:46:59;21.20;99.90
44817;DHT22;30529;53.570;9.964;2022-07-29T09:49:33;21.40;99.90
44817;DHT22;30529;53.570;9.964;2022-07-29T09:52:08;21.60;99.90
44817;DHT22;30529;53.570;9.964;2022-07-29T09:54:35;21.80;99.90
44817;DHT22;30529;53.570;9.964;2022-07-29T09:57:07;21.80;99.90
44817;DHT22;30529;53.570;9.964;2022-07-29T09:59:34;21.90;99.90
44817;DHT22;30529;53.570;9.964;2022-07-29T10:02:01;22.30;99.90
44817;DHT22;30529;53.570;9.964;2022-07-29T10:04:42;22.60;99.90
44817;DHT22;30529;53.570;9.964;2022-07-29T10:07:09;22.70;99.90
44817;DHT22;30529;53.570;9.964;2022-07-29T10:09:35;22.50;99.90
44817;DHT22;30529;53.570;9.964;2022-07-29T10:12:06;22.40;99.90
44817;DHT22;30529;53.570;9.964;2022-07-29T10:14:34;22.60;99.90
44817;DHT22;30529;53.570;9.964;2022-07-29T10:17:03;22.80;99.90
44817;DHT22;30529;53.570;9.964;2022-07-29T10:19:31;22.90;99.90
44817;DHT22;30529;53.570;9.964;2022-07-29T10:21:59;23.00;99.90
44817;DHT22;30529;53.570;9.964;2022-07-29T10:24:26;23.10;99.90
44817;DHT22;30529;53.570;9.964;2022-07-29T10:27:00;23.00;99.90
44817;DHT22;30529;53.570;9.964;2022-07-29T10:29:29;23.10;99.90
44817;DHT22;30529;53.570;9.964;2022-07-29T10:35:21;23.30;99.90
44817;DHT22;30529;53.570;9.964;2022-07-29T10:43:27;23.30;99.90
44817;DHT22;30529;53.570;9.964;2022-07-29T10:45:59;23.20;99.90
44817;DHT22;30529;53.570;9.964;2022-07-29T10:48:25;23.10;99.90
44817;DHT22;30529;53.570;9.964;2022-07-29T10:50:59;23.30;99.90
44817;DHT22;30529;53.570;9.964;2022-07-29T10:56:27;23.20;99.90
44817;DHT22;30529;53.570;9.964;2022-07-29T11:01:48;23.20;99.90
44817;DHT22;30529;53.570;9.964;2022-07-29T11:07:09;23.40;99.90
44817;DHT22;30529;53.570;9.964;2022-07-29T11:09:36;23.60;99.90
44817;DHT22;30529;53.570;9.964;2022-07-29T11:12:02;23.70;99.90
44817;DHT22;30529;53.570;9.964;2022-07-29T11:17:20;23.90;99.90
44817;DHT22;30529;53.570;9.964;2022-07-29T11:19:46;24.00;99.90
44817;DHT22;30529;53.570;9.964;2022-07-29T11:22:32;24.10;99.90
44817;DHT22;30529;53.570;9.964;2022-07-29T11:25:15;24.10;99.90
44817;DHT22;30529;53.570;9.964;2022-07-29T11:27:42;24.60;99.90
44817;DHT22;30529;53.570;9.964;2022-07-29T11:30:09;24.70;99.90
44817;DHT22;30529;53.570;9.964;2022-07-29T11:32:41;24.60;99.90
44817;DHT22;30529;53.570;9.964;2022-07-29T11:35:17;24.20;99.90
44817;DHT22;30529;53.570;9.964;2022-07-29T11:37:46;24.30;99.90
44817;DHT22;30529;53.570;9.964;2022-07-29T11:40:13;24.20;99.90
44817;DHT22;30529;53.570;9.964;2022-07-29T11:42:42;24.20;99.90
44817;DHT22;30529;53.570;9.964;2022-07-29T11:45:22;24.20;99.90
44817;DHT22;30529;53.570;9.964;2022-07-29T11:47:52;24.10;99.90
44817;DHT22;30529;53.570;9.964;2022-07-29T11:50:34;24.00;99.90
44817;DHT22;30529;53.570;9.964;2022-07-29T11:53:11;24.00;99.90
44817;DHT22;30529;53.570;9.964;2022-07-29T11:55:39;23.90;99.90
44817;DHT22;30529;53.570;9.964;2022-07-29T11:58:05;23.80;99.90
44817;DHT22;30529;53.570;9.964;2022-07-29T12:00:37;23.90;99.90
44817;DHT22;30529;53.570;9.964;2022-07-29T12:03:08;24.00;99.90
44817;DHT22;30529;53.570;9.964;2022-07-29T12:05:43;24.20;99.90
44817;DHT22;30529;53.570;9.964;2022-07-29T12:08:17;24.20;99.90
44817;DHT22;30529;53.570;9.964;2022-07-29T12:10:46;24.30;99.90
44817;DHT22;30529;53.570;9.964;2022-07-29T12:13:14;24.30;99.90
44817;DHT22;30529;53.570;9.964;2022-07-29T12:15:41;24.30;99.90
44817;DHT22;30529;53.570;9.964;2022-07-29T12:18:16;24.40;99.90
44817;DHT22;30529;53.570;9.964;2022-07-29T12:20:44;24.40;99.90
44817;DHT22;30529;53.570;9.964;2022-07-29T12:23:10;24.60;99.90
44817;DHT22;30529;53.570;9.964;2022-07-29T12:25:41;24.60;99.90
44817;DHT22;30529;53.570;9.964;2022-07-29T12:28:09;24.70;99.90
44817;DHT22;30529;53.570;9.964;2022-07-29T12:33:27;24.70;99.90
44817;DHT22;30529;53.570;9.964;2022-07-29T12:35:58;24.60;99.90
44817;DHT22;30529;53.570;9.964;2022-07-29T12:38:25;24.60;99.90
44817;DHT22;30529;53.570;9.964;2022-07-29T12:40:53;24.70;99.90
44817;DHT22;30529;53.570;9.964;2022-07-29T12:43:21;24.60;99.90
44817;DHT22;30529;53.570;9.964;2022-07-29T12:45:55;24.40;99.90
44817;DHT22;30529;53.570;9.964;2022-07-29T12:48:35;24.30;99.90
44817;DHT22;30529;53.570;9.964;2022-07-29T12:51:03;24.30;99.90
44817;DHT22;30529;53.570;9.964;2022-07-29T12:53:29;24.20;99.90
44817;DHT22;30529;53.570;9.964;2022-07-29T12:55:57;24.20;99.90
44817;DHT22;30529;53.570;9.964;2022-07-29T12:58:40;24.20;99.90
44817;DHT22;30529;53.570;9.964;2022-07-29T13:01:09;24.00;99.90
44817;DHT22;30529;53.570;9.964;2022-07-29T13:04:02;24.10;99.90
44817;DHT22;30529;53.570;9.964;2022-07-29T13:06:39;24.10;99.90
44817;DHT22;30529;53.570;9.964;2022-07-29T13:09:15;24.20;99.90
44817;DHT22;30529;53.570;9.964;2022-07-29T13:11:49;24.10;99.90
44817;DHT22;30529;53.570;9.964;2022-07-29T13:19:47;24.20;99.90
44817;DHT22;30529;53.570;9.964;2022-07-29T13:22:16;24.30;99.90
44817;DHT22;30529;53.570;9.964;2022-07-29T13:25:00;24.40;99.90
44817;DHT22;30529;53.570;9.964;2022-07-29T13:27:29;24.50;99.90
44817;DHT22;30529;53.570;9.964;2022-07-29T13:29:59;24.60;99.90
44817;DHT22;30529;53.570;9.964;2022-07-29T13:32:27;24.40;99.90
44817;DHT22;30529;53.570;9.964;2022-07-29T13:34:59;24.40;99.90
44817;DHT22;30529;53.570;9.964;2022-07-29T13:37:26;24.30;99.90
44817;DHT22;30529;53.570;9.964;2022-07-29T13:39:58;24.10;99.90
44817;DHT22;30529;53.570;9.964;2022-07-29T13:42:29;24.00;99.90
44817;DHT22;30529;53.570;9.964;2022-07-29T13:44:55;24.00;99.90
44817;DHT22;30529;53.570;9.964;2022-07-29T13:47:22;24.00;99.90
44817;DHT22;30529;53.570;9.964;2022-07-29T13:49:48;23.90;99.90
44817;DHT22;30529;53.570;9.964;2022-07-29T13:52:18;23.90;99.90
44817;DHT22;30529;53.570;9.964;2022-07-29T13:54:48;24.00;99.90
44817;DHT22;30529;53.570;9.964;2022-07-29T13:57:15;24.10;99.90
44817;DHT22;30529;53.570;9.964;2022-07-29T13:59:42;24.10;99.90
44817;DHT22;30529;53.570;9.964;2022-07-29T14:02:10;24.00;99.90
44817;DHT22;30529;53.570;9.964;2022-07-29T14:04:36;24.00;99.90
44817;DHT22;30529;53.570;9.964;2022-07-29T14:07:03;24.10;99.90
44817;DHT22;30529;53.570;9.964;2022-07-29T14:09:30;24.00;99.90
44817;DHT22;30529;53.570;9.964;2022-07-29T14:11:56;24.00;99.90
44817;DHT22;30529;53.570;9.964;2022-07-29T14:14:22;24.10;99.90
44817;DHT22;30529;53.570;9.964;2022-07-29T14:16:48;24.10;99.90
44817;DHT22;30529;53.570;9.964;2022-07-29T14:19:15;24.20;99.90
44817;DHT22;30529;53.570;9.964;2022-07-29T14:21:41;24.00;99.90
44817;DHT22;30529;53.570;9.964;2022-07-29T14:24:07;23.70;99.90
44817;DHT22;30529;53.570;9.964;2022-07-29T14:26:33;23.70;99.90
44817;DHT22;30529;53.570;9.964;2022-07-29T14:28:59;23.70;99.90
44817;DHT22;30529;53.570;9.964;2022-07-29T14:31:25;23.70;99.90
44817;DHT22;30529;53.570;9.964;2022-07-29T14:33:51;23.60;99.90
44817;DHT22;30529;53.570;9.964;2022-07-29T14:36:18;23.60;99.90
44817;DHT22;30529;53.570;9.964;2022-07-29T14:38:44;23.70;99.90
44817;DHT22;30529;53.570;9.964;2022-07-29T14:41:10;23.70;99.90
44817;DHT22;30529;53.570;9.964;2022-07-29T14:43:36;23.70;99.90
44817;DHT22;30529;53.570;9.964;2022-07-29T14:46:02;23.80;99.90
44817;DHT22;30529;53.570;9.964;2022-07-29T14:48:29;23.90;99.90
44817;DHT22;30529;53.570;9.964;2022-07-29T14:50:55;23.90;99.90
44817;DHT22;30529;53.570;9.964;2022-07-29T14:53:22;24.00;99.90
44817;DHT22;30529;53.570;9.964;2022-07-29T14:55:48;24.00;99.90
44817;DHT22;30529;53.570;9.964;2022-07-29T14:58:15;24.10;99.90
44817;DHT22;30529;53.570;9.964;2022-07-29T15:00:42;24.30;99.90
44817;DHT22;30529;53.570;9.964;2022-07-29T15:03:08;24.20;99.90
44817;DHT22;30529;53.570;9.964;2022-07-29T15:05:37;24.00;99.90
44817;DHT22;30529;53.570;9.964;2022-07-29T15:08:04;23.80;99.90
44817;DHT22;30529;53.570;9.964;2022-07-29T15:10:30;23.70;99.90
44817;DHT22;30529;53.570;9.964;2022-07-29T15:12:56;23.50;99.90
44817;DHT22;30529;53.570;9.964;2022-07-29T15:15:22;23.40;99.90
44817;DHT22;30529;53.570;9.964;2022-07-29T15:17:48;23.40;99.90
44817;DHT22;30529;53.570;9.964;2022-07-29T15:20:15;23.30;99.90
44817;DHT22;30529;53.570;9.964;2022-07-29T15:22:41;23.30;99.90
44817;DHT22;30529;53.570;9.964;2022-07-29T15:25:08;23.20;99.90
44817;DHT22;30529;53.570;9.964;2022-07-29T15:27:35;23.10;99.90
44817;DHT22;30529;53.570;9.964;2022-07-29T15:30:01;22.90;99.90
44817;DHT22;30529;53.570;9.964;2022-07-29T15:32:28;22.90;99.90
44817;DHT22;30529;53.570;9.964;2022-07-29T15:34:54;22.80;99.90
44817;DHT22;30529;53.570;9.964;2022-07-29T15:37:20;22.90;99.90
44817;DHT22;30529;53.570;9.964;2022-07-29T15:39:46;22.90;99.90
44817;DHT22;30529;53.570;9.964;2022-07-29T15:42:12;23.00;99.90
44817;DHT22;30529;53.570;9.964;2022-07-29T15:44:38;23.10;99.90
44817;DHT22;30529;53.570;9.964;2022-07-29T15:47:04;23.20;99.90
44817;DHT22;30529;53.570;9.964;2022-07-29T15:49:34;23.10;99.90
44817;DHT22;30529;53.570;9.964;2022-07-29T15:52:04;23.20;99.90
44817;DHT22;30529;53.570;9.964;2022-07-29T15:54:32;23.30;99.90
44817;DHT22;30529;53.570;9.964;2022-07-29T15:56:59;23.30;99.90
44817;DHT22;30529;53.570;9.964;2022-07-29T15:59:25;23.30;99.90
44817;DHT22;30529;53.570;9.964;2022-07-29T16:01:51;23.30;99.90
44817;DHT22;30529;53.570;9.964;2022-07-29T16:04:17;23.30;99.90
44817;DHT22;30529;53.570;9.964;2022-07-29T16:06:45;23.20;99.90
44817;DHT22;30529;53.570;9.964;2022-07-29T16:09:12;23.20;99.90
44817;DHT22;30529;53.570;9.964;2022-07-29T16:11:38;23.20;99.90
44817;DHT22;30529;53.570;9.964;2022-07-29T16:14:04;23.20;99.90
44817;DHT22;30529;53.570;9.964;2022-07-29T16:16:30;23.30;99.90
44817;DHT22;30529;53.570;9.964;2022-07-29T16:18:56;23.30;99.90
44817;DHT22;30529;53.570;9.964;2022-07-29T16:21:22;23.30;99.90